sensor_id;sensor_type;location;lat;lon;timestamp;P1;durP1;ratioP1;P2;durP2;ratioP2
20423;SDS011;10371;49.042;8.002;2022-11-20T00:00:47;13.07;;;11.77;;
20423;SDS011;10371;49.042;8.002;2022-11-20T00:01:47;13.07;;;11.77;;
20423;SDS011;10371;49.042;8.002;2022-11-20T00:02:48;14.57;;;12.90;;
20423;SDS011;10371;49.042;8.002;2022-11-20T00:03:48;13.53;;;12.17;;
20423;SDS011;10371;49.042;8.002;2022-11-20T00:04:50;12.47;;;11.20;;
20423;SDS011;10371;49.042;8.002;2022-11-20T00:05:51;14.37;;;12.13;;
20423;SDS011;10371;49.042;8.002;2022-11-20T00:06:51;13.70;;;12.20;;
20423;SDS011;10371;49.042;8.002;2022-11-20T00:07:51;13.67;;;12.27;;
20423;SDS011;10371;49.042;8.002;2022-11-20T00:08:53;13.70;;;12.37;;
20423;SDS011;10371;49.042;8.002;2022-11-20T00:09:56;13.67;;;12.23;;
20423;SDS011;10371;49.042;8.002;2022-11-20T00:10:56;12.93;;;11.63;;
20423;SDS011;10371;49.042;8.002;2022-11-20T00:11:56;13.20;;;11.83;;
20423;SDS011;10371;49.042;8.002;2022-11-20T00:12:57;13.80;;;12.30;;
20423;SDS011;10371;49.042;8.002;2022-11-20T00:13:59;13.73;;;12.40;;
20423;SDS011;10371;49.042;8.002;2022-11-20T00:15:00;13.97;;;12.37;;
20423;SDS011;10371;49.042;8.002;2022-11-20T00:16:02;13.73;;;12.33;;
20423;SDS011;10371;49.042;8.002;2022-11-20T00:17:04;13.13;;;11.80;;
20423;SDS011;10371;49.042;8.002;2022-11-20T00:18:04;14.17;;;12.67;;
20423;SDS011;10371;49.042;8.002;2022-11-20T00:19:04;16.40;;;14.07;;
20423;SDS011;10371;49.042;8.002;2022-11-20T00:20:05;18.23;;;15.63;;
20423;SDS011;10371;49.042;8.002;2022-11-20T00:21:07;20.10;;;16.40;;
20423;SDS011;10371;49.042;8.002;2022-11-20T00:22:11;17.03;;;15.23;;
20423;SDS011;10371;49.042;8.002;2022-11-20T00:23:12;17.97;;;14.73;;
20423;SDS011;10371;49.042;8.002;2022-11-20T00:24:12;16.90;;;14.33;;
20423;SDS011;10371;49.042;8.002;2022-11-20T00:25:13;17.53;;;15.13;;
20423;SDS011;10371;49.042;8.002;2022-11-20T00:26:14;23.67;;;16.13;;
20423;SDS011;10371;49.042;8.002;2022-11-20T00:27:15;17.00;;;14.93;;
20423;SDS011;10371;49.042;8.002;2022-11-20T00:28:16;20.63;;;15.73;;
20423;SDS011;10371;49.042;8.002;2022-11-20T00:29:16;18.13;;;15.40;;
20423;SDS011;10371;49.042;8.002;2022-11-20T00:30:16;17.67;;;15.33;;
20423;SDS011;10371;49.042;8.002;2022-11-20T00:31:17;19.67;;;16.03;;
20423;SDS011;10371;49.042;8.002;2022-11-20T00:32:17;18.33;;;16.00;;
20423;SDS011;10371;49.042;8.002;2022-11-20T00:33:18;22.07;;;16.03;;
20423;SDS011;10371;49.042;8.002;2022-11-20T00:34:18;23.00;;;15.40;;
20423;SDS011;10371;49.042;8.002;2022-11-20T00:35:18;16.40;;;13.73;;
20423;SDS011;10371;49.042;8.002;2022-11-20T00:36:20;15.63;;;14.00;;
20423;SDS011;10371;49.042;8.002;2022-11-20T00:37:22;16.33;;;13.80;;
20423;SDS011;10371;49.042;8.002;2022-11-20T00:38:22;16.23;;;14.43;;
20423;SDS011;10371;49.042;8.002;2022-11-20T00:39:22;15.77;;;14.10;;
20423;SDS011;10371;49.042;8.002;2022-11-20T00:40:22;15.70;;;14.03;;
20423;SDS011;10371;49.042;8.002;2022-11-20T00:41:23;19.57;;;14.20;;
20423;SDS011;10371;49.042;8.002;2022-11-20T00:42:24;16.23;;;14.53;;
20423;SDS011;10371;49.042;8.002;2022-11-20T00:43:25;16.13;;;13.63;;
20423;SDS011;10371;49.042;8.002;2022-11-20T00:44:25;16.17;;;14.47;;
20423;SDS011;10371;49.042;8.002;2022-11-20T00:45:26;16.00;;;14.30;;
20423;SDS011;10371;49.042;8.002;2022-11-20T00:46:26;15.37;;;13.67;;
20423;SDS011;10371;49.042;8.002;2022-11-20T00:47:28;14.17;;;12.47;;
20423;SDS011;10371;49.042;8.002;2022-11-20T00:48:28;16.10;;;14.30;;
20423;SDS011;10371;49.042;8.002;2022-11-20T00:49:28;16.83;;;13.63;;
20423;SDS011;10371;49.042;8.002;2022-11-20T00:50:28;15.90;;;14.13;;
20423;SDS011;10371;49.042;8.002;2022-11-20T00:51:29;16.87;;;14.00;;
20423;SDS011;10371;49.042;8.002;2022-11-20T00:52:29;15.20;;;13.30;;
20423;SDS011;10371;49.042;8.002;2022-11-20T00:53:30;21.17;;;14.37;;
20423;SDS011;10371;49.042;8.002;2022-11-20T00:54:30;15.07;;;13.43;;
20423;SDS011;10371;49.042;8.002;2022-11-20T00:55:31;14.97;;;13.00;;
20423;SDS011;10371;49.042;8.002;2022-11-20T00:56:31;14.27;;;12.77;;
20423;SDS011;10371;49.042;8.002;2022-11-20T00:57:31;14.93;;;13.27;;
20423;SDS011;10371;49.042;8.002;2022-11-20T00:58:32;14.27;;;12.70;;
20423;SDS011;10371;49.042;8.002;2022-11-20T00:59:37;15.03;;;13.43;;
20423;SDS011;10371;49.042;8.002;2022-11-20T01:00:37;14.77;;;12.97;;
20423;SDS011;10371;49.042;8.002;2022-11-20T01:01:38;14.50;;;13.10;;
20423;SDS011;10371;49.042;8.002;2022-11-20T01:02:38;15.20;;;13.57;;
20423;SDS011;10371;49.042;8.002;2022-11-20T01:03:39;16.00;;;13.70;;
20423;SDS011;10371;49.042;8.002;2022-11-20T01:04:41;13.90;;;12.50;;
20423;SDS011;10371;49.042;8.002;2022-11-20T01:05:42;16.43;;;13.67;;
20423;SDS011;10371;49.042;8.002;2022-11-20T01:06:42;15.27;;;13.67;;
20423;SDS011;10371;49.042;8.002;2022-11-20T01:07:42;16.73;;;13.40;;
20423;SDS011;10371;49.042;8.002;2022-11-20T01:08:43;16.43;;;13.00;;
20423;SDS011;10371;49.042;8.002;2022-11-20T01:09:44;14.93;;;12.80;;
20423;SDS011;10371;49.042;8.002;2022-11-20T01:10:44;13.43;;;12.13;;
20423;SDS011;10371;49.042;8.002;2022-11-20T01:11:44;14.77;;;13.27;;
20423;SDS011;10371;49.042;8.002;2022-11-20T01:12:45;15.30;;;13.27;;
20423;SDS011;10371;49.042;8.002;2022-11-20T01:14:06;14.80;;;12.57;;
20423;SDS011;10371;49.042;8.002;2022-11-20T01:15:10;14.47;;;12.97;;
20423;SDS011;10371;49.042;8.002;2022-11-20T01:17:13;13.63;;;12.23;;
20423;SDS011;10371;49.042;8.002;2022-11-20T01:18:13;15.23;;;13.20;;
20423;SDS011;10371;49.042;8.002;2022-11-20T01:19:15;14.37;;;12.90;;
20423;SDS011;10371;49.042;8.002;2022-11-20T01:20:17;14.67;;;13.10;;
20423;SDS011;10371;49.042;8.002;2022-11-20T01:21:28;14.03;;;12.53;;
20423;SDS011;10371;49.042;8.002;2022-11-20T01:22:30;13.87;;;12.07;;
20423;SDS011;10371;49.042;8.002;2022-11-20T01:23:31;18.10;;;13.80;;
20423;SDS011;10371;49.042;8.002;2022-11-20T01:24:32;16.63;;;13.13;;
20423;SDS011;10371;49.042;8.002;2022-11-20T01:25:33;15.80;;;12.87;;
20423;SDS011;10371;49.042;8.002;2022-11-20T01:26:35;15.00;;;12.63;;
20423;SDS011;10371;49.042;8.002;2022-11-20T01:27:36;15.33;;;13.43;;
20423;SDS011;10371;49.042;8.002;2022-11-20T01:28:37;15.20;;;13.03;;
20423;SDS011;10371;49.042;8.002;2022-11-20T01:29:38;14.47;;;12.73;;
20423;SDS011;10371;49.042;8.002;2022-11-20T01:30:39;16.13;;;14.23;;
20423;SDS011;10371;49.042;8.002;2022-11-20T01:31:39;14.57;;;12.47;;
20423;SDS011;10371;49.042;8.002;2022-11-20T01:32:39;14.60;;;13.10;;
20423;SDS011;10371;49.042;8.002;2022-11-20T01:33:40;13.80;;;12.30;;
20423;SDS011;10371;49.042;8.002;2022-11-20T01:34:41;15.17;;;12.50;;
20423;SDS011;10371;49.042;8.002;2022-11-20T01:35:41;12.73;;;11.43;;
20423;SDS011;10371;49.042;8.002;2022-11-20T01:36:41;12.80;;;11.50;;
20423;SDS011;10371;49.042;8.002;2022-11-20T01:37:42;12.83;;;11.53;;
20423;SDS011;10371;49.042;8.002;2022-11-20T01:38:42;13.23;;;11.23;;
20423;SDS011;10371;49.042;8.002;2022-11-20T01:39:43;13.70;;;12.30;;
20423;SDS011;10371;49.042;8.002;2022-11-20T01:40:43;14.67;;;12.57;;
20423;SDS011;10371;49.042;8.002;2022-11-20T01:41:45;13.97;;;12.47;;
20423;SDS011;10371;49.042;8.002;2022-11-20T01:43:18;13.73;;;12.33;;
20423;SDS011;10371;49.042;8.002;2022-11-20T01:47:04;14.73;;;13.07;;
20423;SDS011;10371;49.042;8.002;2022-11-20T01:48:06;14.80;;;12.70;;
20423;SDS011;10371;49.042;8.002;2022-11-20T01:49:17;14.33;;;12.83;;
20423;SDS011;10371;49.042;8.002;2022-11-20T01:50:23;14.27;;;12.77;;
20423;SDS011;10371;49.042;8.002;2022-11-20T01:51:29;13.60;;;12.20;;
20423;SDS011;10371;49.042;8.002;2022-11-20T01:52:39;15.17;;;13.57;;
20423;SDS011;10371;49.042;8.002;2022-11-20T01:53:44;18.50;;;16.67;;
20423;SDS011;10371;49.042;8.002;2022-11-20T01:54:47;21.73;;;19.53;;
20423;SDS011;10371;49.042;8.002;2022-11-20T01:55:53;18.90;;;16.93;;
20423;SDS011;10371;49.042;8.002;2022-11-20T01:56:56;18.90;;;16.93;;
20423;SDS011;10371;49.042;8.002;2022-11-20T01:57:59;18.10;;;15.13;;
20423;SDS011;10371;49.042;8.002;2022-11-20T01:59:01;16.63;;;14.97;;
20423;SDS011;10371;49.042;8.002;2022-11-20T02:00:09;16.70;;;15.00;;
20423;SDS011;10371;49.042;8.002;2022-11-20T02:01:13;18.03;;;16.13;;
20423;SDS011;10371;49.042;8.002;2022-11-20T02:02:14;17.80;;;15.90;;
20423;SDS011;10371;49.042;8.002;2022-11-20T02:03:17;16.57;;;14.87;;
20423;SDS011;10371;49.042;8.002;2022-11-20T02:04:19;17.70;;;14.97;;
20423;SDS011;10371;49.042;8.002;2022-11-20T02:06:31;16.10;;;14.40;;
20423;SDS011;10371;49.042;8.002;2022-11-20T02:07:35;18.43;;;15.20;;
20423;SDS011;10371;49.042;8.002;2022-11-20T02:08:37;16.20;;;14.50;;
20423;SDS011;10371;49.042;8.002;2022-11-20T02:09:38;16.90;;;15.10;;
20423;SDS011;10371;49.042;8.002;2022-11-20T02:10:38;15.40;;;13.80;;
20423;SDS011;10371;49.042;8.002;2022-11-20T02:11:38;15.70;;;14.00;;
20423;SDS011;10371;49.042;8.002;2022-11-20T02:12:39;14.93;;;13.43;;
20423;SDS011;10371;49.042;8.002;2022-11-20T02:13:57;15.90;;;14.17;;
20423;SDS011;10371;49.042;8.002;2022-11-20T02:14:59;14.43;;;12.93;;
20423;SDS011;10371;49.042;8.002;2022-11-20T02:15:59;15.23;;;13.17;;
20423;SDS011;10371;49.042;8.002;2022-11-20T02:17:00;14.20;;;12.73;;
20423;SDS011;10371;49.042;8.002;2022-11-20T02:18:00;13.70;;;12.40;;
20423;SDS011;10371;49.042;8.002;2022-11-20T02:19:01;14.27;;;12.87;;
20423;SDS011;10371;49.042;8.002;2022-11-20T02:20:06;13.83;;;12.47;;
20423;SDS011;10371;49.042;8.002;2022-11-20T02:21:09;13.33;;;12.03;;
20423;SDS011;10371;49.042;8.002;2022-11-20T02:22:28;14.50;;;12.47;;
20423;SDS011;10371;49.042;8.002;2022-11-20T02:23:39;13.53;;;12.00;;
20423;SDS011;10371;49.042;8.002;2022-11-20T02:24:51;13.03;;;11.63;;
20423;SDS011;10371;49.042;8.002;2022-11-20T02:25:52;13.23;;;11.90;;
20423;SDS011;10371;49.042;8.002;2022-11-20T02:28:16;14.87;;;12.47;;
20423;SDS011;10371;49.042;8.002;2022-11-20T02:30:18;14.70;;;13.30;;
20423;SDS011;10371;49.042;8.002;2022-11-20T02:30:52;16.00;;;12.33;;
20423;SDS011;10371;49.042;8.002;2022-11-20T02:31:53;13.13;;;11.77;;
20423;SDS011;10371;49.042;8.002;2022-11-20T02:32:55;14.00;;;12.27;;
20423;SDS011;10371;49.042;8.002;2022-11-20T02:33:56;14.33;;;12.83;;
20423;SDS011;10371;49.042;8.002;2022-11-20T02:34:58;13.97;;;12.53;;
20423;SDS011;10371;49.042;8.002;2022-11-20T02:36:07;13.70;;;12.30;;
20423;SDS011;10371;49.042;8.002;2022-11-20T02:37:11;13.93;;;12.57;;
20423;SDS011;10371;49.042;8.002;2022-11-20T02:38:12;15.20;;;13.60;;
20423;SDS011;10371;49.042;8.002;2022-11-20T02:39:13;17.30;;;15.60;;
20423;SDS011;10371;49.042;8.002;2022-11-20T02:40:16;18.23;;;15.10;;
20423;SDS011;10371;49.042;8.002;2022-11-20T02:41:17;15.23;;;13.63;;
20423;SDS011;10371;49.042;8.002;2022-11-20T02:42:17;13.63;;;11.90;;
20423;SDS011;10371;49.042;8.002;2022-11-20T02:43:18;13.63;;;11.97;;
20423;SDS011;10371;49.042;8.002;2022-11-20T02:44:18;12.73;;;11.47;;
20423;SDS011;10371;49.042;8.002;2022-11-20T02:45:18;13.77;;;11.30;;
20423;SDS011;10371;49.042;8.002;2022-11-20T02:46:19;12.17;;;10.97;;
20423;SDS011;10371;49.042;8.002;2022-11-20T02:47:19;13.13;;;11.73;;
20423;SDS011;10371;49.042;8.002;2022-11-20T02:48:19;11.87;;;10.67;;
20423;SDS011;10371;49.042;8.002;2022-11-20T02:49:20;11.37;;;10.33;;
20423;SDS011;10371;49.042;8.002;2022-11-20T02:50:20;11.90;;;10.70;;
20423;SDS011;10371;49.042;8.002;2022-11-20T02:51:21;11.80;;;10.67;;
20423;SDS011;10371;49.042;8.002;2022-11-20T02:52:22;11.87;;;10.67;;
20423;SDS011;10371;49.042;8.002;2022-11-20T02:53:22;11.70;;;10.50;;
20423;SDS011;10371;49.042;8.002;2022-11-20T02:54:22;12.40;;;10.00;;
20423;SDS011;10371;49.042;8.002;2022-11-20T02:55:23;11.83;;;10.17;;
20423;SDS011;10371;49.042;8.002;2022-11-20T02:56:24;10.07;;;9.07;;
20423;SDS011;10371;49.042;8.002;2022-11-20T02:57:24;11.23;;;10.00;;
20423;SDS011;10371;49.042;8.002;2022-11-20T02:58:24;10.70;;;9.70;;
20423;SDS011;10371;49.042;8.002;2022-11-20T02:59:25;10.07;;;9.17;;
20423;SDS011;10371;49.042;8.002;2022-11-20T03:00:25;10.53;;;9.53;;
20423;SDS011;10371;49.042;8.002;2022-11-20T03:01:25;10.33;;;9.40;;
20423;SDS011;10371;49.042;8.002;2022-11-20T03:02:29;10.67;;;9.57;;
20423;SDS011;10371;49.042;8.002;2022-11-20T03:03:30;10.93;;;9.50;;
20423;SDS011;10371;49.042;8.002;2022-11-20T03:04:30;10.87;;;9.87;;
20423;SDS011;10371;49.042;8.002;2022-11-20T03:05:30;10.27;;;9.07;;
20423;SDS011;10371;49.042;8.002;2022-11-20T03:06:31;10.23;;;9.20;;
20423;SDS011;10371;49.042;8.002;2022-11-20T03:07:31;9.87;;;8.97;;
20423;SDS011;10371;49.042;8.002;2022-11-20T03:08:32;10.50;;;9.37;;
20423;SDS011;10371;49.042;8.002;2022-11-20T03:09:32;10.10;;;9.20;;
20423;SDS011;10371;49.042;8.002;2022-11-20T03:10:32;10.50;;;9.40;;
20423;SDS011;10371;49.042;8.002;2022-11-20T03:11:33;10.93;;;9.93;;
20423;SDS011;10371;49.042;8.002;2022-11-20T03:12:33;10.63;;;9.53;;
20423;SDS011;10371;49.042;8.002;2022-11-20T03:13:34;10.07;;;9.07;;
20423;SDS011;10371;49.042;8.002;2022-11-20T03:14:34;10.83;;;8.40;;
20423;SDS011;10371;49.042;8.002;2022-11-20T03:15:35;10.17;;;9.17;;
20423;SDS011;10371;49.042;8.002;2022-11-20T03:16:36;10.10;;;8.93;;
20423;SDS011;10371;49.042;8.002;2022-11-20T03:17:37;9.93;;;8.63;;
20423;SDS011;10371;49.042;8.002;2022-11-20T03:18:37;10.03;;;9.10;;
20423;SDS011;10371;49.042;8.002;2022-11-20T03:19:38;10.90;;;9.17;;
20423;SDS011;10371;49.042;8.002;2022-11-20T03:20:38;10.07;;;9.00;;
20423;SDS011;10371;49.042;8.002;2022-11-20T03:21:38;9.47;;;8.60;;
20423;SDS011;10371;49.042;8.002;2022-11-20T03:22:39;9.57;;;8.37;;
20423;SDS011;10371;49.042;8.002;2022-11-20T03:23:40;9.57;;;8.33;;
20423;SDS011;10371;49.042;8.002;2022-11-20T03:24:41;9.93;;;9.00;;
20423;SDS011;10371;49.042;8.002;2022-11-20T03:25:41;10.17;;;9.00;;
20423;SDS011;10371;49.042;8.002;2022-11-20T03:26:41;10.00;;;9.00;;
20423;SDS011;10371;49.042;8.002;2022-11-20T03:27:41;9.53;;;8.63;;
20423;SDS011;10371;49.042;8.002;2022-11-20T03:28:45;9.93;;;8.97;;
20423;SDS011;10371;49.042;8.002;2022-11-20T03:29:47;9.70;;;8.77;;
20423;SDS011;10371;49.042;8.002;2022-11-20T03:30:47;9.07;;;8.17;;
20423;SDS011;10371;49.042;8.002;2022-11-20T03:31:47;10.53;;;9.50;;
20423;SDS011;10371;49.042;8.002;2022-11-20T03:32:48;9.77;;;8.87;;
20423;SDS011;10371;49.042;8.002;2022-11-20T03:33:48;9.30;;;8.37;;
20423;SDS011;10371;49.042;8.002;2022-11-20T03:34:49;11.07;;;9.00;;
20423;SDS011;10371;49.042;8.002;2022-11-20T03:35:49;9.83;;;8.93;;
20423;SDS011;10371;49.042;8.002;2022-11-20T03:36:49;9.07;;;8.17;;
20423;SDS011;10371;49.042;8.002;2022-11-20T03:37:50;8.83;;;8.03;;
20423;SDS011;10371;49.042;8.002;2022-11-20T03:38:50;9.80;;;8.80;;
20423;SDS011;10371;49.042;8.002;2022-11-20T03:39:50;10.00;;;8.57;;
20423;SDS011;10371;49.042;8.002;2022-11-20T03:40:50;9.87;;;8.97;;
20423;SDS011;10371;49.042;8.002;2022-11-20T03:41:51;9.80;;;8.90;;
20423;SDS011;10371;49.042;8.002;2022-11-20T03:42:51;9.70;;;8.70;;
20423;SDS011;10371;49.042;8.002;2022-11-20T03:43:52;9.53;;;8.53;;
20423;SDS011;10371;49.042;8.002;2022-11-20T03:44:58;8.67;;;7.93;;
20423;SDS011;10371;49.042;8.002;2022-11-20T03:45:58;9.30;;;8.40;;
20423;SDS011;10371;49.042;8.002;2022-11-20T03:46:58;8.57;;;7.77;;
20423;SDS011;10371;49.042;8.002;2022-11-20T03:47:59;8.70;;;7.90;;
20423;SDS011;10371;49.042;8.002;2022-11-20T03:48:59;8.77;;;7.90;;
20423;SDS011;10371;49.042;8.002;2022-11-20T03:50:00;8.80;;;7.97;;
20423;SDS011;10371;49.042;8.002;2022-11-20T03:51:13;8.47;;;7.67;;
20423;SDS011;10371;49.042;8.002;2022-11-20T03:52:16;8.83;;;8.03;;
20423;SDS011;10371;49.042;8.002;2022-11-20T03:53:16;9.17;;;8.07;;
20423;SDS011;10371;49.042;8.002;2022-11-20T03:54:17;9.20;;;8.27;;
20423;SDS011;10371;49.042;8.002;2022-11-20T03:55:17;7.70;;;7.07;;
20423;SDS011;10371;49.042;8.002;2022-11-20T03:56:18;8.50;;;6.73;;
20423;SDS011;10371;49.042;8.002;2022-11-20T03:57:21;7.60;;;6.87;;
20423;SDS011;10371;49.042;8.002;2022-11-20T03:58:22;8.83;;;7.93;;
20423;SDS011;10371;49.042;8.002;2022-11-20T03:59:22;8.43;;;7.47;;
20423;SDS011;10371;49.042;8.002;2022-11-20T04:00:23;7.97;;;7.23;;
20423;SDS011;10371;49.042;8.002;2022-11-20T04:01:25;8.03;;;7.00;;
20423;SDS011;10371;49.042;8.002;2022-11-20T04:02:28;8.20;;;7.37;;
20423;SDS011;10371;49.042;8.002;2022-11-20T04:03:28;7.60;;;6.80;;
20423;SDS011;10371;49.042;8.002;2022-11-20T04:04:28;7.63;;;6.93;;
20423;SDS011;10371;49.042;8.002;2022-11-20T04:05:29;7.83;;;6.97;;
20423;SDS011;10371;49.042;8.002;2022-11-20T04:06:30;7.13;;;6.43;;
20423;SDS011;10371;49.042;8.002;2022-11-20T04:07:34;8.30;;;7.30;;
20423;SDS011;10371;49.042;8.002;2022-11-20T04:08:35;7.00;;;6.37;;
20423;SDS011;10371;49.042;8.002;2022-11-20T04:09:36;6.70;;;6.07;;
20423;SDS011;10371;49.042;8.002;2022-11-20T04:10:36;7.73;;;7.03;;
20423;SDS011;10371;49.042;8.002;2022-11-20T04:11:37;7.37;;;6.50;;
20423;SDS011;10371;49.042;8.002;2022-11-20T04:12:39;7.10;;;6.40;;
20423;SDS011;10371;49.042;8.002;2022-11-20T04:13:39;6.30;;;5.80;;
20423;SDS011;10371;49.042;8.002;2022-11-20T04:14:41;6.53;;;5.93;;
20423;SDS011;10371;49.042;8.002;2022-11-20T04:15:41;7.27;;;6.57;;
20423;SDS011;10371;49.042;8.002;2022-11-20T04:16:42;7.43;;;6.47;;
20423;SDS011;10371;49.042;8.002;2022-11-20T04:17:42;8.03;;;6.10;;
20423;SDS011;10371;49.042;8.002;2022-11-20T04:18:43;6.43;;;5.87;;
20423;SDS011;10371;49.042;8.002;2022-11-20T04:19:43;6.63;;;6.03;;
20423;SDS011;10371;49.042;8.002;2022-11-20T04:20:44;6.70;;;6.10;;
20423;SDS011;10371;49.042;8.002;2022-11-20T04:21:44;6.83;;;6.03;;
20423;SDS011;10371;49.042;8.002;2022-11-20T04:22:44;6.37;;;5.80;;
20423;SDS011;10371;49.042;8.002;2022-11-20T04:23:45;7.07;;;6.43;;
20423;SDS011;10371;49.042;8.002;2022-11-20T04:24:45;6.47;;;5.87;;
20423;SDS011;10371;49.042;8.002;2022-11-20T04:25:45;7.50;;;5.87;;
20423;SDS011;10371;49.042;8.002;2022-11-20T04:26:45;6.30;;;5.70;;
20423;SDS011;10371;49.042;8.002;2022-11-20T04:27:46;6.40;;;5.90;;
20423;SDS011;10371;49.042;8.002;2022-11-20T04:28:46;6.20;;;5.60;;
20423;SDS011;10371;49.042;8.002;2022-11-20T04:29:46;6.77;;;6.07;;
20423;SDS011;10371;49.042;8.002;2022-11-20T04:30:47;6.33;;;5.70;;
20423;SDS011;10371;49.042;8.002;2022-11-20T04:31:47;6.83;;;6.13;;
20423;SDS011;10371;49.042;8.002;2022-11-20T04:32:47;6.37;;;5.77;;
20423;SDS011;10371;49.042;8.002;2022-11-20T04:33:48;6.50;;;5.67;;
20423;SDS011;10371;49.042;8.002;2022-11-20T04:34:48;6.37;;;5.77;;
20423;SDS011;10371;49.042;8.002;2022-11-20T04:35:48;7.50;;;5.90;;
20423;SDS011;10371;49.042;8.002;2022-11-20T04:36:49;6.20;;;5.50;;
20423;SDS011;10371;49.042;8.002;2022-11-20T04:37:51;6.37;;;5.80;;
20423;SDS011;10371;49.042;8.002;2022-11-20T04:38:52;6.07;;;5.47;;
20423;SDS011;10371;49.042;8.002;2022-11-20T04:39:53;5.80;;;5.30;;
20423;SDS011;10371;49.042;8.002;2022-11-20T04:41:00;5.90;;;5.27;;
20423;SDS011;10371;49.042;8.002;2022-11-20T04:42:02;5.83;;;5.33;;
20423;SDS011;10371;49.042;8.002;2022-11-20T04:43:21;6.00;;;5.40;;
20423;SDS011;10371;49.042;8.002;2022-11-20T04:44:22;6.83;;;6.13;;
20423;SDS011;10371;49.042;8.002;2022-11-20T04:45:22;6.23;;;5.43;;
20423;SDS011;10371;49.042;8.002;2022-11-20T04:46:23;5.63;;;5.10;;
20423;SDS011;10371;49.042;8.002;2022-11-20T04:47:23;6.03;;;5.53;;
20423;SDS011;10371;49.042;8.002;2022-11-20T04:48:24;5.90;;;5.40;;
20423;SDS011;10371;49.042;8.002;2022-11-20T04:49:25;6.23;;;5.63;;
20423;SDS011;10371;49.042;8.002;2022-11-20T04:50:25;6.20;;;5.60;;
20423;SDS011;10371;49.042;8.002;2022-11-20T04:51:26;6.23;;;5.60;;
20423;SDS011;10371;49.042;8.002;2022-11-20T04:52:27;6.17;;;5.47;;
20423;SDS011;10371;49.042;8.002;2022-11-20T04:53:27;6.00;;;5.50;;
20423;SDS011;10371;49.042;8.002;2022-11-20T04:54:27;6.93;;;5.57;;
20423;SDS011;10371;49.042;8.002;2022-11-20T04:55:28;5.97;;;5.47;;
20423;SDS011;10371;49.042;8.002;2022-11-20T04:56:28;5.70;;;5.20;;
20423;SDS011;10371;49.042;8.002;2022-11-20T04:57:28;6.07;;;5.47;;
20423;SDS011;10371;49.042;8.002;2022-11-20T04:58:29;5.93;;;5.43;;
20423;SDS011;10371;49.042;8.002;2022-11-20T04:59:29;6.17;;;5.07;;
20423;SDS011;10371;49.042;8.002;2022-11-20T05:00:30;6.00;;;5.33;;
20423;SDS011;10371;49.042;8.002;2022-11-20T05:01:30;5.90;;;5.30;;
20423;SDS011;10371;49.042;8.002;2022-11-20T05:02:30;6.00;;;5.40;;
20423;SDS011;10371;49.042;8.002;2022-11-20T05:03:31;6.00;;;5.37;;
20423;SDS011;10371;49.042;8.002;2022-11-20T05:04:31;5.93;;;5.30;;
20423;SDS011;10371;49.042;8.002;2022-11-20T05:05:33;5.83;;;5.23;;
20423;SDS011;10371;49.042;8.002;2022-11-20T05:06:34;6.03;;;5.47;;
20423;SDS011;10371;49.042;8.002;2022-11-20T05:07:34;5.47;;;4.97;;
20423;SDS011;10371;49.042;8.002;2022-11-20T05:08:34;5.93;;;4.90;;
20423;SDS011;10371;49.042;8.002;2022-11-20T05:09:35;5.40;;;4.90;;
20423;SDS011;10371;49.042;8.002;2022-11-20T05:10:35;5.80;;;4.90;;
20423;SDS011;10371;49.042;8.002;2022-11-20T05:11:35;5.10;;;4.70;;
20423;SDS011;10371;49.042;8.002;2022-11-20T05:12:36;5.33;;;4.90;;
20423;SDS011;10371;49.042;8.002;2022-11-20T05:13:36;4.80;;;4.40;;
20423;SDS011;10371;49.042;8.002;2022-11-20T05:14:37;5.50;;;5.00;;
20423;SDS011;10371;49.042;8.002;2022-11-20T05:15:37;5.17;;;4.40;;
20423;SDS011;10371;49.042;8.002;2022-11-20T05:16:37;4.67;;;4.17;;
20423;SDS011;10371;49.042;8.002;2022-11-20T05:17:38;4.80;;;4.40;;
20423;SDS011;10371;49.042;8.002;2022-11-20T05:18:38;7.87;;;4.73;;
20423;SDS011;10371;49.042;8.002;2022-11-20T05:19:39;4.80;;;4.20;;
20423;SDS011;10371;49.042;8.002;2022-11-20T05:20:40;5.73;;;4.83;;
20423;SDS011;10371;49.042;8.002;2022-11-20T05:21:40;4.73;;;4.33;;
20423;SDS011;10371;49.042;8.002;2022-11-20T05:22:40;5.10;;;4.60;;
20423;SDS011;10371;49.042;8.002;2022-11-20T05:23:41;5.47;;;4.97;;
20423;SDS011;10371;49.042;8.002;2022-11-20T05:24:42;5.47;;;4.80;;
20423;SDS011;10371;49.042;8.002;2022-11-20T05:25:42;5.50;;;5.10;;
20423;SDS011;10371;49.042;8.002;2022-11-20T05:26:43;6.50;;;5.33;;
20423;SDS011;10371;49.042;8.002;2022-11-20T05:27:43;6.43;;;5.60;;
20423;SDS011;10371;49.042;8.002;2022-11-20T05:28:43;5.73;;;5.03;;
20423;SDS011;10371;49.042;8.002;2022-11-20T05:29:44;6.47;;;4.83;;
20423;SDS011;10371;49.042;8.002;2022-11-20T05:30:44;6.93;;;6.07;;
20423;SDS011;10371;49.042;8.002;2022-11-20T05:31:44;8.47;;;6.23;;
20423;SDS011;10371;49.042;8.002;2022-11-20T05:32:45;6.70;;;5.67;;
20423;SDS011;10371;49.042;8.002;2022-11-20T05:33:45;6.87;;;5.20;;
20423;SDS011;10371;49.042;8.002;2022-11-20T05:34:45;5.70;;;5.20;;
20423;SDS011;10371;49.042;8.002;2022-11-20T05:35:46;6.70;;;5.23;;
20423;SDS011;10371;49.042;8.002;2022-11-20T05:36:46;5.83;;;5.30;;
20423;SDS011;10371;49.042;8.002;2022-11-20T05:37:46;6.20;;;5.63;;
20423;SDS011;10371;49.042;8.002;2022-11-20T05:38:47;5.40;;;4.80;;
20423;SDS011;10371;49.042;8.002;2022-11-20T05:39:47;6.27;;;5.67;;
20423;SDS011;10371;49.042;8.002;2022-11-20T05:40:47;6.33;;;5.70;;
20423;SDS011;10371;49.042;8.002;2022-11-20T05:41:47;6.13;;;5.53;;
20423;SDS011;10371;49.042;8.002;2022-11-20T05:43:08;5.97;;;5.37;;
20423;SDS011;10371;49.042;8.002;2022-11-20T05:44:11;5.60;;;5.03;;
20423;SDS011;10371;49.042;8.002;2022-11-20T05:45:11;7.67;;;6.40;;
20423;SDS011;10371;49.042;8.002;2022-11-20T05:46:13;6.87;;;6.13;;
20423;SDS011;10371;49.042;8.002;2022-11-20T05:47:14;7.57;;;6.50;;
20423;SDS011;10371;49.042;8.002;2022-11-20T05:48:14;7.97;;;6.07;;
20423;SDS011;10371;49.042;8.002;2022-11-20T05:49:15;6.00;;;5.40;;
20423;SDS011;10371;49.042;8.002;2022-11-20T05:50:15;6.10;;;5.50;;
20423;SDS011;10371;49.042;8.002;2022-11-20T05:51:17;7.10;;;6.40;;
20423;SDS011;10371;49.042;8.002;2022-11-20T05:52:18;8.53;;;5.93;;
20423;SDS011;10371;49.042;8.002;2022-11-20T05:53:19;6.83;;;5.63;;
20423;SDS011;10371;49.042;8.002;2022-11-20T05:54:19;6.30;;;5.70;;
20423;SDS011;10371;49.042;8.002;2022-11-20T05:55:19;6.27;;;5.67;;
20423;SDS011;10371;49.042;8.002;2022-11-20T05:56:20;6.63;;;5.93;;
20423;SDS011;10371;49.042;8.002;2022-11-20T05:57:21;6.57;;;5.00;;
20423;SDS011;10371;49.042;8.002;2022-11-20T05:58:22;5.77;;;5.17;;
20423;SDS011;10371;49.042;8.002;2022-11-20T05:59:22;6.90;;;5.93;;
20423;SDS011;10371;49.042;8.002;2022-11-20T06:00:22;9.90;;;8.97;;
20423;SDS011;10371;49.042;8.002;2022-11-20T06:01:23;13.27;;;11.87;;
20423;SDS011;10371;49.042;8.002;2022-11-20T06:02:25;6.57;;;5.87;;
20423;SDS011;10371;49.042;8.002;2022-11-20T06:03:25;6.57;;;5.97;;
20423;SDS011;10371;49.042;8.002;2022-11-20T06:04:26;6.47;;;5.77;;
20423;SDS011;10371;49.042;8.002;2022-11-20T06:05:26;6.47;;;5.80;;
20423;SDS011;10371;49.042;8.002;2022-11-20T06:06:26;7.23;;;6.53;;
20423;SDS011;10371;49.042;8.002;2022-11-20T06:07:27;6.17;;;5.63;;
20423;SDS011;10371;49.042;8.002;2022-11-20T06:08:27;6.53;;;5.63;;
20423;SDS011;10371;49.042;8.002;2022-11-20T06:09:28;5.67;;;5.03;;
20423;SDS011;10371;49.042;8.002;2022-11-20T06:10:28;6.77;;;6.07;;
20423;SDS011;10371;49.042;8.002;2022-11-20T06:11:28;6.80;;;5.77;;